sensor_id;sensor_type;location;lat;lon;timestamp;P1;P2;P0
74880;PMS5003;63427;49.654;6.596;2023-07-02T00:02:21;9;9;
74880;PMS5003;63427;49.654;6.596;2023-07-02T00:04:47;8;7;
74880;PMS5003;63427;49.654;6.596;2023-07-02T00:07:12;10;8;
74880;PMS5003;63427;49.654;6.596;2023-07-02T00:09:37;10;9;
74880;PMS5003;63427;49.654;6.596;2023-07-02T00:12:03;7;7;
74880;PMS5003;63427;49.654;6.596;2023-07-02T00:14:28;11;11;
74880;PMS5003;63427;49.654;6.596;2023-07-02T00:16:54;8;8;
74880;PMS5003;63427;49.654;6.596;2023-07-02T00:19:19;9;9;
74880;PMS5003;63427;49.654;6.596;2023-07-02T00:21:44;8;8;
74880;PMS5003;63427;49.654;6.596;2023-07-02T00:24:10;10;9;
74880;PMS5003;63427;49.654;6.596;2023-07-02T00:26:35;9;9;
74880;PMS5003;63427;49.654;6.596;2023-07-02T00:29:00;10;8;
74880;PMS5003;63427;49.654;6.596;2023-07-02T00:31:26;10;10;
74880;PMS5003;63427;49.654;6.596;2023-07-02T00:33:56;10;9;
74880;PMS5003;63427;49.654;6.596;2023-07-02T00:36:17;10;9;
74880;PMS5003;63427;49.654;6.596;2023-07-02T00:38:42;9;9;
74880;PMS5003;63427;49.654;6.596;2023-07-02T00:41:07;11;11;
74880;PMS5003;63427;49.654;6.596;2023-07-02T00:43:33;8;8;
74880;PMS5003;63427;49.654;6.596;2023-07-02T00:45:58;11;10;
74880;PMS5003;63427;49.654;6.596;2023-07-02T00:48:23;11;10;
74880;PMS5003;63427;49.654;6.596;2023-07-02T00:50:49;9;8;
74880;PMS5003;63427;49.654;6.596;2023-07-02T00:53:14;10;9;
74880;PMS5003;63427;49.654;6.596;2023-07-02T00:55:39;11;11;
74880;PMS5003;63427;49.654;6.596;2023-07-02T00:58:05;10;10;
74880;PMS5003;63427;49.654;6.596;2023-07-02T01:00:30;13;12;
74880;PMS5003;63427;49.654;6.596;2023-07-02T01:02:55;10;10;
74880;PMS5003;63427;49.654;6.596;2023-07-02T01:05:21;12;11;
74880;PMS5003;63427;49.654;6.596;2023-07-02T01:07:46;9;9;
74880;PMS5003;63427;49.654;6.596;2023-07-02T01:10:11;11;10;
74880;PMS5003;63427;49.654;6.596;2023-07-02T01:12:37;8;8;
74880;PMS5003;63427;49.654;6.596;2023-07-02T01:15:02;10;10;
74880;PMS5003;63427;49.654;6.596;2023-07-02T01:17:28;13;13;
74880;PMS5003;63427;49.654;6.596;2023-07-02T01:19:54;10;10;
74880;PMS5003;63427;49.654;6.596;2023-07-02T01:22:19;9;9;
74880;PMS5003;63427;49.654;6.596;2023-07-02T01:24:45;11;11;
74880;PMS5003;63427;49.654;6.596;2023-07-02T01:27:10;10;9;
74880;PMS5003;63427;49.654;6.596;2023-07-02T01:29:36;9;8;
74880;PMS5003;63427;49.654;6.596;2023-07-02T01:32:01;8;7;
74880;PMS5003;63427;49.654;6.596;2023-07-02T01:34:26;8;8;
74880;PMS5003;63427;49.654;6.596;2023-07-02T01:36:52;8;8;
74880;PMS5003;63427;49.654;6.596;2023-07-02T01:39:17;9;9;
74880;PMS5003;63427;49.654;6.596;2023-07-02T01:41:44;9;8;
74880;PMS5003;63427;49.654;6.596;2023-07-02T01:44:08;14;13;
74880;PMS5003;63427;49.654;6.596;2023-07-02T01:46:33;7;7;
74880;PMS5003;63427;49.654;6.596;2023-07-02T01:48:59;7;7;
74880;PMS5003;63427;49.654;6.596;2023-07-02T01:51:24;8;8;
74880;PMS5003;63427;49.654;6.596;2023-07-02T01:53:49;8;7;
74880;PMS5003;63427;49.654;6.596;2023-07-02T01:56:15;9;9;
74880;PMS5003;63427;49.654;6.596;2023-07-02T01:58:41;9;8;
74880;PMS5003;63427;49.654;6.596;2023-07-02T02:01:06;9;8;
74880;PMS5003;63427;49.654;6.596;2023-07-02T02:03:32;9;9;
74880;PMS5003;63427;49.654;6.596;2023-07-02T02:05:57;9;9;
74880;PMS5003;63427;49.654;6.596;2023-07-02T02:08:23;10;10;
74880;PMS5003;63427;49.654;6.596;2023-07-02T02:10:49;8;8;
74880;PMS5003;63427;49.654;6.596;2023-07-02T02:13:14;11;10;
74880;PMS5003;63427;49.654;6.596;2023-07-02T02:15:39;11;11;
74880;PMS5003;63427;49.654;6.596;2023-07-02T02:18:05;11;11;
74880;PMS5003;63427;49.654;6.596;2023-07-02T02:20:30;14;14;
74880;PMS5003;63427;49.654;6.596;2023-07-02T02:22:55;15;15;
74880;PMS5003;63427;49.654;6.596;2023-07-02T02:25:20;13;12;
74880;PMS5003;63427;49.654;6.596;2023-07-02T02:27:45;12;12;
74880;PMS5003;63427;49.654;6.596;2023-07-02T02:30:10;17;17;
74880;PMS5003;63427;49.654;6.596;2023-07-02T02:32:36;12;11;
74880;PMS5003;63427;49.654;6.596;2023-07-02T02:35:01;15;15;
74880;PMS5003;63427;49.654;6.596;2023-07-02T02:37:26;18;18;
74880;PMS5003;63427;49.654;6.596;2023-07-02T02:39:51;13;13;
74880;PMS5003;63427;49.654;6.596;2023-07-02T02:42:17;16;15;
74880;PMS5003;63427;49.654;6.596;2023-07-02T02:44:42;16;16;
74880;PMS5003;63427;49.654;6.596;2023-07-02T02:47:08;15;14;
74880;PMS5003;63427;49.654;6.596;2023-07-02T02:49:33;17;17;
74880;PMS5003;63427;49.654;6.596;2023-07-02T02:51:58;18;18;
74880;PMS5003;63427;49.654;6.596;2023-07-02T02:54:23;20;20;
74880;PMS5003;63427;49.654;6.596;2023-07-02T02:56:48;15;15;
74880;PMS5003;63427;49.654;6.596;2023-07-02T02:59:13;19;19;
74880;PMS5003;63427;49.654;6.596;2023-07-02T03:01:39;19;18;
74880;PMS5003;63427;49.654;6.596;2023-07-02T03:04:04;20;19;
74880;PMS5003;63427;49.654;6.596;2023-07-02T03:06:30;23;21;
74880;PMS5003;63427;49.654;6.596;2023-07-02T03:08:55;24;23;
74880;PMS5003;63427;49.654;6.596;2023-07-02T03:11:21;20;20;
74880;PMS5003;63427;49.654;6.596;2023-07-02T03:13:46;25;24;
74880;PMS5003;63427;49.654;6.596;2023-07-02T03:16:11;19;17;
74880;PMS5003;63427;49.654;6.596;2023-07-02T03:18:37;22;20;
74880;PMS5003;63427;49.654;6.596;2023-07-02T03:21:02;22;21;
74880;PMS5003;63427;49.654;6.596;2023-07-02T03:23:28;22;22;
74880;PMS5003;63427;49.654;6.596;2023-07-02T03:25:53;23;21;
74880;PMS5003;63427;49.654;6.596;2023-07-02T03:28:18;19;19;
74880;PMS5003;63427;49.654;6.596;2023-07-02T03:30:43;24;23;
74880;PMS5003;63427;49.654;6.596;2023-07-02T03:33:09;27;25;
74880;PMS5003;63427;49.654;6.596;2023-07-02T03:35:34;22;22;
74880;PMS5003;63427;49.654;6.596;2023-07-02T03:38:00;21;20;
74880;PMS5003;63427;49.654;6.596;2023-07-02T03:40:25;22;22;
74880;PMS5003;63427;49.654;6.596;2023-07-02T03:42:50;25;24;
74880;PMS5003;63427;49.654;6.596;2023-07-02T03:45:15;25;25;
74880;PMS5003;63427;49.654;6.596;2023-07-02T03:47:40;19;18;
74880;PMS5003;63427;49.654;6.596;2023-07-02T03:50:06;25;22;
74880;PMS5003;63427;49.654;6.596;2023-07-02T03:52:31;21;20;
74880;PMS5003;63427;49.654;6.596;2023-07-02T03:54:56;23;22;
74880;PMS5003;63427;49.654;6.596;2023-07-02T03:57:21;23;21;
74880;PMS5003;63427;49.654;6.596;2023-07-02T03:59:47;20;20;
74880;PMS5003;63427;49.654;6.596;2023-07-02T04:02:12;21;20;
74880;PMS5003;63427;49.654;6.596;2023-07-02T04:04:37;20;20;
74880;PMS5003;63427;49.654;6.596;2023-07-02T04:07:02;23;23;
74880;PMS5003;63427;49.654;6.596;2023-07-02T04:09:28;20;19;
74880;PMS5003;63427;49.654;6.596;2023-07-02T04:11:53;20;20;
74880;PMS5003;63427;49.654;6.596;2023-07-02T04:14:18;22;21;
74880;PMS5003;63427;49.654;6.596;2023-07-02T04:16:43;21;20;
74880;PMS5003;63427;49.654;6.596;2023-07-02T04:19:08;22;21;
74880;PMS5003;63427;49.654;6.596;2023-07-02T04:21:34;24;24;
74880;PMS5003;63427;49.654;6.596;2023-07-02T04:23:59;25;22;
74880;PMS5003;63427;49.654;6.596;2023-07-02T04:26:24;22;21;
74880;PMS5003;63427;49.654;6.596;2023-07-02T04:28:50;25;24;
74880;PMS5003;63427;49.654;6.596;2023-07-02T04:31:16;25;23;
74880;PMS5003;63427;49.654;6.596;2023-07-02T04:33:42;26;25;
74880;PMS5003;63427;49.654;6.596;2023-07-02T04:36:07;23;23;
74880;PMS5003;63427;49.654;6.596;2023-07-02T04:38:33;28;28;
74880;PMS5003;63427;49.654;6.596;2023-07-02T04:40:58;24;23;
74880;PMS5003;63427;49.654;6.596;2023-07-02T04:43:23;26;26;
74880;PMS5003;63427;49.654;6.596;2023-07-02T04:45:49;22;22;
74880;PMS5003;63427;49.654;6.596;2023-07-02T04:48:14;28;26;
74880;PMS5003;63427;49.654;6.596;2023-07-02T04:50:41;30;28;
74880;PMS5003;63427;49.654;6.596;2023-07-02T04:53:06;31;30;
74880;PMS5003;63427;49.654;6.596;2023-07-02T04:55:31;28;27;
74880;PMS5003;63427;49.654;6.596;2023-07-02T04:57:57;31;28;
74880;PMS5003;63427;49.654;6.596;2023-07-02T05:00:22;33;31;
74880;PMS5003;63427;49.654;6.596;2023-07-02T05:02:47;35;32;
74880;PMS5003;63427;49.654;6.596;2023-07-02T05:05:13;29;28;
74880;PMS5003;63427;49.654;6.596;2023-07-02T05:07:40;33;30;
74880;PMS5003;63427;49.654;6.596;2023-07-02T05:10:04;32;32;
74880;PMS5003;63427;49.654;6.596;2023-07-02T05:12:29;35;34;
74880;PMS5003;63427;49.654;6.596;2023-07-02T05:14:54;27;27;
74880;PMS5003;63427;49.654;6.596;2023-07-02T05:17:20;40;39;
74880;PMS5003;63427;49.654;6.596;2023-07-02T05:19:44;30;29;
74880;PMS5003;63427;49.654;6.596;2023-07-02T05:22:10;32;30;
74880;PMS5003;63427;49.654;6.596;2023-07-02T05:24:36;35;33;
74880;PMS5003;63427;49.654;6.596;2023-07-02T05:29:26;36;33;
74880;PMS5003;63427;49.654;6.596;2023-07-02T05:31:51;33;31;
74880;PMS5003;63427;49.654;6.596;2023-07-02T05:34:17;41;37;
74880;PMS5003;63427;49.654;6.596;2023-07-02T05:36:42;34;34;
74880;PMS5003;63427;49.654;6.596;2023-07-02T05:39:08;36;36;
74880;PMS5003;63427;49.654;6.596;2023-07-02T05:41:33;36;33;
74880;PMS5003;63427;49.654;6.596;2023-07-02T05:43:58;34;33;
74880;PMS5003;63427;49.654;6.596;2023-07-02T05:46:24;42;40;
74880;PMS5003;63427;49.654;6.596;2023-07-02T05:48:50;37;36;
74880;PMS5003;63427;49.654;6.596;2023-07-02T05:51:19;36;34;
74880;PMS5003;63427;49.654;6.596;2023-07-02T05:53:40;41;39;
74880;PMS5003;63427;49.654;6.596;2023-07-02T05:56:06;35;34;
74880;PMS5003;63427;49.654;6.596;2023-07-02T05:58:31;36;35;
74880;PMS5003;63427;49.654;6.596;2023-07-02T06:00:56;36;35;
74880;PMS5003;63427;49.654;6.596;2023-07-02T06:03:22;39;37;
74880;PMS5003;63427;49.654;6.596;2023-07-02T06:05:47;38;37;
74880;PMS5003;63427;49.654;6.596;2023-07-02T06:08:13;36;35;
74880;PMS5003;63427;49.654;6.596;2023-07-02T06:10:38;38;37;
74880;PMS5003;63427;49.654;6.596;2023-07-02T06:13:04;37;35;
74880;PMS5003;63427;49.654;6.596;2023-07-02T06:15:29;34;34;
74880;PMS5003;63427;49.654;6.596;2023-07-02T06:17:54;38;37;
74880;PMS5003;63427;49.654;6.596;2023-07-02T06:20:20;36;33;
74880;PMS5003;63427;49.654;6.596;2023-07-02T06:22:46;38;36;
74880;PMS5003;63427;49.654;6.596;2023-07-02T06:25:11;41;36;
74880;PMS5003;63427;49.654;6.596;2023-07-02T06:27:37;39;37;
74880;PMS5003;63427;49.654;6.596;2023-07-02T06:30:03;37;35;
74880;PMS5003;63427;49.654;6.596;2023-07-02T06:32:27;43;41;
74880;PMS5003;63427;49.654;6.596;2023-07-02T06:34:53;43;38;
74880;PMS5003;63427;49.654;6.596;2023-07-02T06:37:18;38;37;
74880;PMS5003;63427;49.654;6.596;2023-07-02T06:39:43;37;36;
74880;PMS5003;63427;49.654;6.596;2023-07-02T06:42:09;43;42;
74880;PMS5003;63427;49.654;6.596;2023-07-02T06:44:34;36;34;
74880;PMS5003;63427;49.654;6.596;2023-07-02T06:47:00;46;45;
74880;PMS5003;63427;49.654;6.596;2023-07-02T06:49:26;39;38;
74880;PMS5003;63427;49.654;6.596;2023-07-02T06:51:51;37;37;
74880;PMS5003;63427;49.654;6.596;2023-07-02T06:54:16;39;37;
74880;PMS5003;63427;49.654;6.596;2023-07-02T06:56:42;41;39;
74880;PMS5003;63427;49.654;6.596;2023-07-02T06:59:07;38;37;
74880;PMS5003;63427;49.654;6.596;2023-07-02T07:01:33;45;40;
74880;PMS5003;63427;49.654;6.596;2023-07-02T07:03:58;43;42;
74880;PMS5003;63427;49.654;6.596;2023-07-02T07:06:23;41;40;
74880;PMS5003;63427;49.654;6.596;2023-07-02T07:08:49;46;41;
74880;PMS5003;63427;49.654;6.596;2023-07-02T07:13:39;42;41;
74880;PMS5003;63427;49.654;6.596;2023-07-02T07:16:05;43;42;
74880;PMS5003;63427;49.654;6.596;2023-07-02T07:18:30;41;39;
74880;PMS5003;63427;49.654;6.596;2023-07-02T07:20:55;35;35;
74880;PMS5003;63427;49.654;6.596;2023-07-02T07:23:21;42;40;
74880;PMS5003;63427;49.654;6.596;2023-07-02T07:25:46;37;35;
74880;PMS5003;63427;49.654;6.596;2023-07-02T07:28:12;40;37;
74880;PMS5003;63427;49.654;6.596;2023-07-02T07:30:38;40;38;
74880;PMS5003;63427;49.654;6.596;2023-07-02T07:33:03;42;41;
74880;PMS5003;63427;49.654;6.596;2023-07-02T07:35:29;47;44;
74880;PMS5003;63427;49.654;6.596;2023-07-02T07:37:54;37;36;
74880;PMS5003;63427;49.654;6.596;2023-07-02T07:40:19;39;38;
74880;PMS5003;63427;49.654;6.596;2023-07-02T07:42:45;39;38;
74880;PMS5003;63427;49.654;6.596;2023-07-02T07:45:10;39;37;
74880;PMS5003;63427;49.654;6.596;2023-07-02T07:47:35;40;38;
74880;PMS5003;63427;49.654;6.596;2023-07-02T07:50:00;41;40;
74880;PMS5003;63427;49.654;6.596;2023-07-02T07:52:25;42;41;
74880;PMS5003;63427;49.654;6.596;2023-07-02T07:54:51;40;37;
74880;PMS5003;63427;49.654;6.596;2023-07-02T07:57:16;38;34;
74880;PMS5003;63427;49.654;6.596;2023-07-02T07:59:42;40;38;
74880;PMS5003;63427;49.654;6.596;2023-07-02T08:02:06;33;31;
74880;PMS5003;63427;49.654;6.596;2023-07-02T08:04:34;39;38;
74880;PMS5003;63427;49.654;6.596;2023-07-02T08:06:57;30;27;
74880;PMS5003;63427;49.654;6.596;2023-07-02T08:09:23;35;33;
74880;PMS5003;63427;49.654;6.596;2023-07-02T08:11:48;40;37;
74880;PMS5003;63427;49.654;6.596;2023-07-02T08:14:14;34;33;
74880;PMS5003;63427;49.654;6.596;2023-07-02T08:16:40;36;35;
74880;PMS5003;63427;49.654;6.596;2023-07-02T08:19:05;37;35;
74880;PMS5003;63427;49.654;6.596;2023-07-02T08:21:30;39;37;
74880;PMS5003;63427;49.654;6.596;2023-07-02T08:23:56;43;40;
74880;PMS5003;63427;49.654;6.596;2023-07-02T08:26:21;37;35;
74880;PMS5003;63427;49.654;6.596;2023-07-02T08:28:46;36;35;
74880;PMS5003;63427;49.654;6.596;2023-07-02T08:31:11;39;36;
74880;PMS5003;63427;49.654;6.596;2023-07-02T08:33:37;43;39;
74880;PMS5003;63427;49.654;6.596;2023-07-02T08:36:03;40;38;
74880;PMS5003;63427;49.654;6.596;2023-07-02T08:38:28;37;36;
74880;PMS5003;63427;49.654;6.596;2023-07-02T08:40:53;40;40;
74880;PMS5003;63427;49.654;6.596;2023-07-02T08:43:18;37;36;
74880;PMS5003;63427;49.654;6.596;2023-07-02T08:45:49;37;35;
74880;PMS5003;63427;49.654;6.596;2023-07-02T08:48:10;36;36;
74880;PMS5003;63427;49.654;6.596;2023-07-02T08:50:35;33;32;
74880;PMS5003;63427;49.654;6.596;2023-07-02T08:53:00;46;42;
74880;PMS5003;63427;49.654;6.596;2023-07-02T08:55:26;39;37;
74880;PMS5003;63427;49.654;6.596;2023-07-02T08:57:52;40;36;
74880;PMS5003;63427;49.654;6.596;2023-07-02T09:00:17;40;40;
74880;PMS5003;63427;49.654;6.596;2023-07-02T09:02:42;40;39;
74880;PMS5003;63427;49.654;6.596;2023-07-02T09:05:07;38;38;
74880;PMS5003;63427;49.654;6.596;2023-07-02T09:09:58;38;38;
74880;PMS5003;63427;49.654;6.596;2023-07-02T09:12:24;35;33;
74880;PMS5003;63427;49.654;6.596;2023-07-02T09:14:54;38;37;
74880;PMS5003;63427;49.654;6.596;2023-07-02T09:17:15;41;40;
74880;PMS5003;63427;49.654;6.596;2023-07-02T09:22:06;38;38;
74880;PMS5003;63427;49.654;6.596;2023-07-02T09:24:31;36;35;
74880;PMS5003;63427;49.654;6.596;2023-07-02T09:26:58;34;34;
74880;PMS5003;63427;49.654;6.596;2023-07-02T09:29:22;37;36;
74880;PMS5003;63427;49.654;6.596;2023-07-02T10:08:13;31;30;
74880;PMS5003;63427;49.654;6.596;2023-07-02T10:10:37;35;34;
74880;PMS5003;63427;49.654;6.596;2023-07-02T10:13:03;35;34;
74880;PMS5003;63427;49.654;6.596;2023-07-02T10:15:29;29;28;
74880;PMS5003;63427;49.654;6.596;2023-07-02T10:17:55;33;29;
74880;PMS5003;63427;49.654;6.596;2023-07-02T10:20:19;28;26;
74880;PMS5003;63427;49.654;6.596;2023-07-02T10:22:45;32;31;
74880;PMS5003;63427;49.654;6.596;2023-07-02T10:25:10;27;26;
74880;PMS5003;63427;49.654;6.596;2023-07-02T10:27:36;28;26;
74880;PMS5003;63427;49.654;6.596;2023-07-02T10:30:01;27;26;
74880;PMS5003;63427;49.654;6.596;2023-07-02T10:32:27;30;27;
74880;PMS5003;63427;49.654;6.596;2023-07-02T10:34:52;32;31;
74880;PMS5003;63427;49.654;6.596;2023-07-02T10:37:17;30;28;
74880;PMS5003;63427;49.654;6.596;2023-07-02T10:39:43;28;28;
74880;PMS5003;63427;49.654;6.596;2023-07-02T10:42:09;27;27;
74880;PMS5003;63427;49.654;6.596;2023-07-02T10:44:34;29;28;
74880;PMS5003;63427;49.654;6.596;2023-07-02T10:47:00;28;28;
74880;PMS5003;63427;49.654;6.596;2023-07-02T10:49:29;29;29;
74880;PMS5003;63427;49.654;6.596;2023-07-02T10:54:15;30;29;
74880;PMS5003;63427;49.654;6.596;2023-07-02T10:56:41;25;25;
74880;PMS5003;63427;49.654;6.596;2023-07-02T10:59:06;30;30;
74880;PMS5003;63427;49.654;6.596;2023-07-02T11:01:32;26;25;
74880;PMS5003;63427;49.654;6.596;2023-07-02T11:03:58;23;23;
74880;PMS5003;63427;49.654;6.596;2023-07-02T11:06:23;24;23;
74880;PMS5003;63427;49.654;6.596;2023-07-02T11:08:49;25;23;
74880;PMS5003;63427;49.654;6.596;2023-07-02T11:11:14;25;25;
74880;PMS5003;63427;49.654;6.596;2023-07-02T11:13:43;27;26;
74880;PMS5003;63427;49.654;6.596;2023-07-02T11:16:16;23;23;
74880;PMS5003;63427;49.654;6.596;2023-07-02T11:18:31;19;18;
74880;PMS5003;63427;49.654;6.596;2023-07-02T11:20:56;28;27;
74880;PMS5003;63427;49.654;6.596;2023-07-02T11:23:23;27;27;
74880;PMS5003;63427;49.654;6.596;2023-07-02T11:25:55;23;23;
74880;PMS5003;63427;49.654;6.596;2023-07-02T11:28:12;26;25;
74880;PMS5003;63427;49.654;6.596;2023-07-02T11:33:08;25;23;
74880;PMS5003;63427;49.654;6.596;2023-07-02T11:35:34;26;26;
74880;PMS5003;63427;49.654;6.596;2023-07-02T11:37:54;26;26;
74880;PMS5003;63427;49.654;6.596;2023-07-02T11:40:20;22;20;
74880;PMS5003;63427;49.654;6.596;2023-07-02T11:42:45;27;25;
74880;PMS5003;63427;49.654;6.596;2023-07-02T11:45:11;24;24;
74880;PMS5003;63427;49.654;6.596;2023-07-02T11:47:37;21;21;
74880;PMS5003;63427;49.654;6.596;2023-07-02T11:50:02;24;24;
74880;PMS5003;63427;49.654;6.596;2023-07-02T11:52:27;23;22;
74880;PMS5003;63427;49.654;6.596;2023-07-02T11:54:53;23;22;
74880;PMS5003;63427;49.654;6.596;2023-07-02T11:57:19;19;19;
74880;PMS5003;63427;49.654;6.596;2023-07-02T11:59:44;25;25;
74880;PMS5003;63427;49.654;6.596;2023-07-02T12:02:09;25;24;
74880;PMS5003;63427;49.654;6.596;2023-07-02T12:04:35;24;24;
74880;PMS5003;63427;49.654;6.596;2023-07-02T12:07:01;24;24;
74880;PMS5003;63427;49.654;6.596;2023-07-02T12:09:26;22;22;
74880;PMS5003;63427;49.654;6.596;2023-07-02T12:11:51;23;22;
74880;PMS5003;63427;49.654;6.596;2023-07-02T12:14:17;23;21;
74880;PMS5003;63427;49.654;6.596;2023-07-02T12:16:49;20;19;
74880;PMS5003;63427;49.654;6.596;2023-07-02T12:19:07;22;20;
74880;PMS5003;63427;49.654;6.596;2023-07-02T12:21:32;25;23;
74880;PMS5003;63427;49.654;6.596;2023-07-02T12:23:58;26;26;
74880;PMS5003;63427;49.654;6.596;2023-07-02T12:26:24;23;23;
74880;PMS5003;63427;49.654;6.596;2023-07-02T12:28:49;26;26;
74880;PMS5003;63427;49.654;6.596;2023-07-02T12:31:14;27;25;
74880;PMS5003;63427;49.654;6.596;2023-07-02T12:33:40;22;22;
74880;PMS5003;63427;49.654;6.596;2023-07-02T12:36:06;23;21;
74880;PMS5003;63427;49.654;6.596;2023-07-02T12:38:31;21;20;
74880;PMS5003;63427;49.654;6.596;2023-07-02T12:40:56;26;25;
74880;PMS5003;63427;49.654;6.596;2023-07-02T12:43:22;19;19;
74880;PMS5003;63427;49.654;6.596;2023-07-02T12:45:48;26;24;
74880;PMS5003;63427;49.654;6.596;2023-07-02T12:48:13;25;24;
74880;PMS5003;63427;49.654;6.596;2023-07-02T12:50:38;25;24;
74880;PMS5003;63427;49.654;6.596;2023-07-02T12:53:03;23;23;
74880;PMS5003;63427;49.654;6.596;2023-07-02T12:55:28;23;23;
74880;PMS5003;63427;49.654;6.596;2023-07-02T12:57:54;22;21;
74880;PMS5003;63427;49.654;6.596;2023-07-02T13:00:19;18;18;
74880;PMS5003;63427;49.654;6.596;2023-07-02T13:02:44;27;26;
74880;PMS5003;63427;49.654;6.596;2023-07-02T13:05:15;20;20;
74880;PMS5003;63427;49.654;6.596;2023-07-02T13:07:35;20;20;
74880;PMS5003;63427;49.654;6.596;2023-07-02T13:10:00;27;26;
74880;PMS5003;63427;49.654;6.596;2023-07-02T13:12:25;22;22;
74880;PMS5003;63427;49.654;6.596;2023-07-02T13:14:51;20;19;
74880;PMS5003;63427;49.654;6.596;2023-07-02T13:17:16;22;22;
74880;PMS5003;63427;49.654;6.596;2023-07-02T13:19:41;23;21;
74880;PMS5003;63427;49.654;6.596;2023-07-02T13:22:07;22;22;
74880;PMS5003;63427;49.654;6.596;2023-07-02T13:24:33;23;22;
74880;PMS5003;63427;49.654;6.596;2023-07-02T13:26:58;26;25;
74880;PMS5003;63427;49.654;6.596;2023-07-02T13:29:28;22;21;
74880;PMS5003;63427;49.654;6.596;2023-07-02T13:31:49;18;18;
74880;PMS5003;63427;49.654;6.596;2023-07-02T13:34:15;23;23;
74880;PMS5003;63427;49.654;6.596;2023-07-02T13:36:41;28;28;
74880;PMS5003;63427;49.654;6.596;2023-07-02T13:39:07;25;21;
74880;PMS5003;63427;49.654;6.596;2023-07-02T13:41:32;21;21;
74880;PMS5003;63427;49.654;6.596;2023-07-02T13:43:58;26;25;
74880;PMS5003;63427;49.654;6.596;2023-07-02T13:46:24;19;18;
74880;PMS5003;63427;49.654;6.596;2023-07-02T13:48:49;19;19;
74880;PMS5003;63427;49.654;6.596;2023-07-02T13:51:15;24;24;
74880;PMS5003;63427;49.654;6.596;2023-07-02T13:53:39;23;21;
74880;PMS5003;63427;49.654;6.596;2023-07-02T13:56:04;22;22;
74880;PMS5003;63427;49.654;6.596;2023-07-02T14:00:56;21;20;
74880;PMS5003;63427;49.654;6.596;2023-07-02T14:03:21;20;20;
74880;PMS5003;63427;49.654;6.596;2023-07-02T14:05:47;22;19;
74880;PMS5003;63427;49.654;6.596;2023-07-02T14:08:12;21;21;
74880;PMS5003;63427;49.654;6.596;2023-07-02T14:10:37;20;20;
74880;PMS5003;63427;49.654;6.596;2023-07-02T14:13:03;23;23;
74880;PMS5003;63427;49.654;6.596;2023-07-02T14:15:29;22;22;
74880;PMS5003;63427;49.654;6.596;2023-07-02T14:17:54;21;21;
74880;PMS5003;63427;49.654;6.596;2023-07-02T14:20:19;18;18;
74880;PMS5003;63427;49.654;6.596;2023-07-02T14:22:45;20;19;
74880;PMS5003;63427;49.654;6.596;2023-07-02T14:25:11;21;20;
74880;PMS5003;63427;49.654;6.596;2023-07-02T14:27:37;25;24;
74880;PMS5003;63427;49.654;6.596;2023-07-02T14:30:02;23;22;
74880;PMS5003;63427;49.654;6.596;2023-07-02T14:32:28;19;17;
74880;PMS5003;63427;49.654;6.596;2023-07-02T14:34:53;21;21;
74880;PMS5003;63427;49.654;6.596;2023-07-02T14:37:19;20;19;
74880;PMS5003;63427;49.654;6.596;2023-07-02T14:39:44;19;18;
74880;PMS5003;63427;49.654;6.596;2023-07-02T14:42:10;22;20;
74880;PMS5003;63427;49.654;6.596;2023-07-02T14:44:35;24;23;
74880;PMS5003;63427;49.654;6.596;2023-07-02T14:47:00;15;14;
74880;PMS5003;63427;49.654;6.596;2023-07-02T14:49:26;16;16;
74880;PMS5003;63427;49.654;6.596;2023-07-02T14:51:51;19;18;
74880;PMS5003;63427;49.654;6.596;2023-07-02T14:54:17;19;19;
74880;PMS5003;63427;49.654;6.596;2023-07-02T14:56:41;21;20;
74880;PMS5003;63427;49.654;6.596;2023-07-02T14:59:07;18;18;
74880;PMS5003;63427;49.654;6.596;2023-07-02T15:01:32;24;23;
74880;PMS5003;63427;49.654;6.596;2023-07-02T15:03:58;19;18;
74880;PMS5003;63427;49.654;6.596;2023-07-02T15:06:23;21;20;
74880;PMS5003;63427;49.654;6.596;2023-07-02T15:08:49;19;18;
74880;PMS5003;63427;49.654;6.596;2023-07-02T15:11:15;22;21;
74880;PMS5003;63427;49.654;6.596;2023-07-02T15:13:40;19;18;
74880;PMS5003;63427;49.654;6.596;2023-07-02T15:16:06;21;20;
74880;PMS5003;63427;49.654;6.596;2023-07-02T15:18:31;19;19;
74880;PMS5003;63427;49.654;6.596;2023-07-02T15:20:57;19;17;
74880;PMS5003;63427;49.654;6.596;2023-07-02T15:23:22;18;18;
74880;PMS5003;63427;49.654;6.596;2023-07-02T15:25:51;22;21;
74880;PMS5003;63427;49.654;6.596;2023-07-02T15:28:13;24;22;
74880;PMS5003;63427;49.654;6.596;2023-07-02T15:30:39;20;19;
74880;PMS5003;63427;49.654;6.596;2023-07-02T15:33:04;17;17;
74880;PMS5003;63427;49.654;6.596;2023-07-02T15:35:29;18;18;
74880;PMS5003;63427;49.654;6.596;2023-07-02T15:37:55;21;21;
74880;PMS5003;63427;49.654;6.596;2023-07-02T15:40:20;22;21;
74880;PMS5003;63427;49.654;6.596;2023-07-02T15:42:46;18;18;
74880;PMS5003;63427;49.654;6.596;2023-07-02T15:45:11;22;19;
74880;PMS5003;63427;49.654;6.596;2023-07-02T15:47:36;19;18;
74880;PMS5003;63427;49.654;6.596;2023-07-02T15:50:02;18;17;
74880;PMS5003;63427;49.654;6.596;2023-07-02T15:52:27;19;19;
74880;PMS5003;63427;49.654;6.596;2023-07-02T15:54:53;20;20;
74880;PMS5003;63427;49.654;6.596;2023-07-02T15:57:19;16;16;
74880;PMS5003;63427;49.654;6.596;2023-07-02T15:59:45;21;20;
74880;PMS5003;63427;49.654;6.596;2023-07-02T16:02:10;21;20;
74880;PMS5003;63427;49.654;6.596;2023-07-02T16:04:36;21;21;
74880;PMS5003;63427;49.654;6.596;2023-07-02T16:07:01;19;19;
74880;PMS5003;63427;49.654;6.596;2023-07-02T16:09:26;17;16;
74880;PMS5003;63427;49.654;6.596;2023-07-02T16:11:52;18;18;
74880;PMS5003;63427;49.654;6.596;2023-07-02T16:14:17;24;22;
74880;PMS5003;63427;49.654;6.596;2023-07-02T16:16:46;23;21;
74880;PMS5003;63427;49.654;6.596;2023-07-02T16:19:08;18;17;
74880;PMS5003;63427;49.654;6.596;2023-07-02T16:21:34;22;22;
74880;PMS5003;63427;49.654;6.596;2023-07-02T16:26:24;20;20;
74880;PMS5003;63427;49.654;6.596;2023-07-02T16:28:50;20;18;
74880;PMS5003;63427;49.654;6.596;2023-07-02T16:31:15;21;20;
74880;PMS5003;63427;49.654;6.596;2023-07-02T16:33:41;23;22;
74880;PMS5003;63427;49.654;6.596;2023-07-02T16:36:08;20;19;
74880;PMS5003;63427;49.654;6.596;2023-07-02T16:38:32;17;17;
74880;PMS5003;63427;49.654;6.596;2023-07-02T16:40:57;20;19;
74880;PMS5003;63427;49.654;6.596;2023-07-02T16:43:22;19;18;
74880;PMS5003;63427;49.654;6.596;2023-07-02T16:45:51;22;22;
74880;PMS5003;63427;49.654;6.596;2023-07-02T16:48:13;24;24;
74880;PMS5003;63427;49.654;6.596;2023-07-02T16:50:39;17;16;
74880;PMS5003;63427;49.654;6.596;2023-07-02T16:53:04;19;19;
74880;PMS5003;63427;49.654;6.596;2023-07-02T16:55:29;23;21;
74880;PMS5003;63427;49.654;6.596;2023-07-02T16:57:55;20;20;
74880;PMS5003;63427;49.654;6.596;2023-07-02T17:00:20;18;17;
74880;PMS5003;63427;49.654;6.596;2023-07-02T17:02:46;18;18;
74880;PMS5003;63427;49.654;6.596;2023-07-02T17:05:11;16;16;